Observations for Trim Patrick St
| Time | AQI | Temp °C | Hum % | Pres Pa | CO μg/m³ | H₂S μg/m³ | NO μg/m³ | NO₂ μg/m³ | O₃ μg/m³ | SO₂ μg/m³ | PM1 μg/m³ | PM2.5 μg/m³ | PM10 μg/m³ |
|---|---|---|---|---|---|---|---|---|---|---|---|---|---|
| Sunday 2 August 2026 | |||||||||||||
| 13:24 | 2 | 28.2 | 36 | 69,149 | 0 | 0 | 1.39 | 16.55 | 96.07 | 11.14 | 4.57 | 9.66 | 10.63 |
| 13:23 | 2 | 28.2 | 36 | 69,128 | 0 | 0 | 1.35 | 14.18 | 78.65 | 10.28 | 3.71 | 10.47 | 11.51 |
| 13:22 | 2 | 28.2 | 36 | 69,124 | 0 | 0 | 1.39 | 17.24 | 80.63 | 9.24 | 3.71 | 10.43 | 11.48 |
| 13:21 | 2 | 28.1 | 36 | 69,122 | 0 | 0 | 1.34 | 16.61 | 77.4 | 10.21 | 4.57 | 10.48 | 11.52 |
| 13:20 | 2 | 28.1 | 36 | 69,147 | 0 | 0 | 1.35 | 18.06 | 94.55 | 9.19 | 2.86 | 9.66 | 10.63 |
| 13:19 | 2 | 28 | 36 | 69,122 | 0 | 0 | 1.38 | 15.12 | 73.98 | 9.74 | 2.86 | 8.88 | 9.76 |
| 13:18 | 2 | 28 | 37 | 69,122 | 0 | 0 | 1.4 | 20.49 | 91.84 | 10.38 | 2 | 8.04 | 8.84 |
| 13:17 | 2 | 27.9 | 36 | 69,122 | 0 | 0 | 1.37 | 16.21 | 79.85 | 8.72 | 2.86 | 8.85 | 9.73 |
| 13:16 | 2 | 27.8 | 38 | 69,124 | 0 | 0 | 1.44 | 13.73 | 82.18 | 11.03 | 2.86 | 8.75 | 9.63 |
| 13:15 | 2 | 27.7 | 36 | 69,124 | 0 | 0 | 1.34 | 35.11 | 77.08 | 9.15 | 2.86 | 10.45 | 11.49 |
| 13:14 | 2 | 27.7 | 37 | 69,124 | 0 | 0 | 1.39 | 13.98 | 105.06 | 11.93 | 3.71 | 9.58 | 10.54 |
| 13:13 | 2 | 27.6 | 36 | 69,122 | 0 | 0 | 1.41 | 27.74 | 94.79 | 9.18 | 2.86 | 8.08 | 8.89 |
| 13:12 | 2 | 27.6 | 37 | 69,122 | 0 | 0 | 1.45 | 13.5 | 73.49 | 9.35 | 3.71 | 10.37 | 11.4 |
| 13:11 | 2 | 27.6 | 37 | 69,124 | 0 | 0 | 1.41 | 14.8 | 81.25 | 8.98 | 3.71 | 8.82 | 9.7 |
| 13:10 | 2 | 27.5 | 38 | 69,094 | 0 | 0 | 1.42 | 15.36 | 93.31 | 11.74 | 2.86 | 7.99 | 8.79 |
| 13:09 | 2 | 27.5 | 38 | 69,086 | 0 | 0 | 1.43 | 19.31 | 82.74 | 7.96 | 2.86 | 8.78 | 9.66 |
| 13:08 | 2 | 27.4 | 37 | 69,076 | 0 | 0 | 1.45 | 10.76 | 76.1 | 11.2 | 3.71 | 9.58 | 10.54 |
| 13:07 | 2 | 27.4 | 37 | 69,094 | 0 | 0 | 1.39 | 22.39 | 97 | 9.13 | 4.57 | 9.62 | 10.58 |
| 13:06 | 2 | 27.4 | 37 | 69,118 | 0 | 0 | 1.33 | 19.21 | 100.85 | 10.1 | 3.71 | 8.79 | 9.67 |
| 13:05 | 2 | 27.4 | 38 | 69,088 | 0 | 0 | 1.34 | 13.48 | 91.32 | 11.84 | 3.71 | 9.51 | 10.46 |